Time;durP1;ratioP1;P1;durP2;ratioP2;P2;SDS_P1;SDS_P2;PMS_P1;PMS_P2;Temp;Humidity;BMP_temperature;BMP_pressure;BME280_temperature;BME280_humidity;BME280_pressure;Samples;Min_cycle;Max_cycle;Signal;HPM_P1;HPM_P2
2022/05/12 00:01:27;;;;;;;3.22;1.65;;;19.90;59.10;;;;;;10417350;28;20030;-63
2022/05/12 00:06:27;;;;;;;2.47;1.17;;;19.90;59.10;;;;;;10432215;28;20043;-63
2022/05/12 00:11:30;;;;;;;2.10;0.85;;;19.90;59.20;;;;;;10415805;28;20045;-64
2022/05/12 00:16:31;;;;;;;2.17;1.17;;;19.90;59.10;;;;;;10431585;28;20022;-63
2022/05/12 00:21:32;;;;;;;1.77;0.93;;;19.80;59.10;;;;;;10422225;28;20064;-64
2022/05/12 00:26:36;;;;;;;4.38;1.20;;;19.90;59.10;;;;;;10418909;28;20033;-64
2022/05/12 00:31:42;;;;;;;2.78;0.98;;;19.80;59.10;;;;;;10416071;28;20474;-64
2022/05/12 00:36:43;;;;;;;1.80;0.80;;;19.80;59.10;;;;;;10404482;28;20045;-63
2022/05/12 00:41:44;;;;;;;1.65;0.80;;;19.80;59.00;;;;;;10416332;28;20026;-63
2022/05/12 00:46:49;;;;;;;1.52;1.00;;;19.80;59.00;;;;;;10414505;28;20029;-64
2022/05/12 00:52:07;;;;;;;3.17;1.20;;;19.80;59.00;;;;;;10430622;28;20108;-64
2022/05/12 00:57:10;;;;;;;2.25;0.82;;;19.80;59.10;;;;;;10415547;28;20057;-63
2022/05/12 01:02:15;;;;;;;1.73;0.70;;;19.80;59.00;;;;;;10415583;28;20105;-64
2022/05/12 01:07:16;;;;;;;1.55;0.68;;;19.80;59.00;;;;;;10414484;28;20033;-64
2022/05/12 01:12:17;;;;;;;2.45;0.90;;;19.80;59.00;;;;;;10414814;28;20429;-64
2022/05/12 01:17:19;;;;;;;1.42;0.80;;;19.80;59.10;;;;;;10414900;28;20112;-63
2022/05/12 01:23:13;;;;;;;1.40;0.80;;;19.80;59.10;;;;;;10440177;28;20094;-63
2022/05/12 01:28:13;;;;;;;4.95;1.05;;;19.80;59.10;;;;;;10413821;28;20164;-63
2022/05/12 01:33:14;;;;;;;2.03;0.88;;;19.80;59.00;;;;;;10412280;28;20094;-64
2022/05/12 01:38:15;;;;;;;1.35;0.65;;;19.70;59.00;;;;;;10413478;28;20076;-64
2022/05/12 01:43:16;;;;;;;2.22;0.63;;;19.70;59.00;;;;;;10428426;28;20041;-63
2022/05/12 01:48:18;;;;;;;2.15;0.77;;;19.70;59.00;;;;;;10413294;28;20034;-64
2022/05/12 01:53:19;;;;;;;2.45;0.93;;;19.70;59.00;;;;;;10428408;28;20061;-63
2022/05/12 01:58:21;;;;;;;2.70;0.80;;;19.70;59.00;;;;;;10411787;28;20052;-64
2022/05/12 02:03:22;;;;;;;1.67;0.70;;;19.70;59.00;;;;;;10412864;28;20029;-64
2022/05/12 02:08:22;;;;;;;1.60;0.68;;;19.70;59.00;;;;;;10412686;28;20037;-64
2022/05/12 02:13:25;;;;;;;1.33;0.73;;;19.70;59.00;;;;;;10412306;28;20543;-64
2022/05/12 02:18:27;;;;;;;1.98;0.70;;;19.70;58.90;;;;;;10412146;28;20033;-63
2022/05/12 02:23:27;;;;;;;1.10;0.70;;;19.70;58.90;;;;;;10436685;28;20386;-63
2022/05/12 02:28:28;;;;;;;1.60;0.75;;;19.70;58.90;;;;;;10412231;28;20090;-63
2022/05/12 02:33:29;;;;;;;3.40;0.80;;;19.60;58.90;;;;;;10411706;28;20044;-64
2022/05/12 02:38:29;;;;;;;2.42;0.80;;;19.60;59.50;;;;;;10410700;28;20026;-63
2022/05/12 02:43:31;;;;;;;2.17;0.73;;;19.60;58.80;;;;;;10412117;28;20541;-64
2022/05/12 02:48:37;;;;;;;3.72;0.90;;;19.60;58.90;;;;;;10410460;28;20091;-64
2022/05/12 02:53:39;;;;;;;1.48;0.68;;;19.60;58.90;;;;;;10423919;28;20038;-64
2022/05/12 02:58:39;;;;;;;2.38;1.02;;;19.60;58.90;;;;;;10427065;28;20060;-64
2022/05/12 03:03:40;;;;;;;2.35;1.02;;;19.60;58.90;;;;;;10422295;28;20037;-64
2022/05/12 03:08:43;;;;;;;2.30;0.55;;;19.60;58.90;;;;;;10411819;28;20064;-63
2022/05/12 03:13:44;;;;;;;1.88;0.63;;;19.60;58.90;;;;;;10409797;28;20026;-64
2022/05/12 03:18:47;;;;;;;3.15;1.60;;;19.50;58.90;;;;;;10410997;28;20029;-63
2022/05/12 03:23:48;;;;;;;2.15;0.65;;;19.60;58.90;;;;;;10436561;28;20025;-64
2022/05/12 03:28:49;;;;;;;2.58;0.90;;;19.60;58.90;;;;;;10410967;28;20501;-63
2022/05/12 03:33:49;;;;;;;2.00;0.68;;;19.50;58.90;;;;;;10418088;28;20061;-64
2022/05/12 03:38:50;;;;;;;2.35;1.00;;;19.50;58.90;;;;;;10416923;28;20469;-63
2022/05/12 03:49:10;;;;;;;3.40;1.00;;;19.50;59.00;;;;;;10417967;28;20393;-64
2022/05/12 03:54:10;;;;;;;2.45;0.80;;;19.50;59.00;;;;;;10425905;28;20033;-64
2022/05/12 03:59:11;;;;;;;1.98;0.93;;;19.50;59.00;;;;;;10417729;28;20025;-64
2022/05/12 04:04:13;;;;;;;2.35;0.85;;;19.50;59.00;;;;;;10415783;28;20702;-63
2022/05/12 04:09:13;;;;;;;2.17;0.85;;;19.50;59.10;;;;;;10432912;28;20486;-64
2022/05/12 04:14:14;;;;;;;2.30;0.80;;;19.50;59.10;;;;;;10417192;28;20048;-64
2022/05/12 04:19:15;;;;;;;3.08;0.75;;;19.50;59.10;;;;;;10416234;28;20104;-64
2022/05/12 04:24:16;;;;;;;3.35;0.73;;;19.50;59.10;;;;;;10426876;28;20045;-64
2022/05/12 04:29:17;;;;;;;1.92;0.82;;;19.50;59.10;;;;;;10410053;28;20060;-64
2022/05/12 04:39:37;;;;;;;3.95;0.88;;;19.40;59.30;;;;;;10433258;28;20034;-62
2022/05/12 04:44:38;;;;;;;4.50;1.23;;;19.60;60.20;;;;;;10415911;28;20073;-64
2022/05/12 04:49:38;;;;;;;4.03;0.90;;;19.50;60.00;;;;;;10408861;28;20057;-64
2022/05/12 04:54:39;;;;;;;4.75;0.95;;;19.60;61.00;;;;;;10419874;28;20129;-61
2022/05/12 04:59:40;;;;;;;3.47;0.93;;;19.70;60.70;;;;;;10411599;28;20033;-59
2022/05/12 05:04:41;;;;;;;12.23;1.52;;;19.70;60.60;;;;;;10415501;28;20037;-59
2022/05/12 05:09:41;;;;;;;13.38;1.40;;;19.70;61.20;;;;;;10414447;28;20030;-60
2022/05/12 05:14:42;;;;;;;10.30;1.45;;;19.70;61.20;;;;;;10415269;28;20455;-62
2022/05/12 05:19:42;;;;;;;11.32;1.63;;;19.60;61.60;;;;;;10414454;28;20053;-61
2022/05/12 05:24:43;;;;;;;14.85;1.98;;;19.60;61.10;;;;;;10422500;28;20033;-63
2022/05/12 05:29:44;;;;;;;16.20;3.50;;;19.60;61.20;;;;;;10411443;28;20037;-62
2022/05/12 05:34:45;;;;;;;12.90;2.40;;;19.60;61.40;;;;;;10409590;28;20044;-64
2022/05/12 05:39:46;;;;;;;17.40;2.67;;;19.60;61.20;;;;;;10429343;28;20159;-63
2022/05/12 05:44:47;;;;;;;9.35;3.15;;;19.60;61.80;;;;;;10410355;28;20065;-64
2022/05/12 05:49:48;;;;;;;13.10;2.90;;;19.50;61.00;;;;;;10411268;28;20438;-59
2022/05/12 05:54:49;;;;;;;8.45;2.95;;;19.60;60.30;;;;;;10395779;28;20118;-61
2022/05/12 05:59:52;;;;;;;8.27;3.03;;;19.60;60.50;;;;;;10413529;28;20052;-61
2022/05/12 06:04:53;;;;;;;9.75;2.75;;;19.60;60.20;;;;;;10412183;28;20026;-61
2022/05/12 06:09:54;;;;;;;6.70;3.45;;;19.50;60.10;;;;;;10411324;28;20482;-61
2022/05/12 06:14:56;;;;;;;8.93;2.92;;;19.50;60.30;;;;;;10411981;28;20109;-61
2022/05/12 06:19:57;;;;;;;14.20;3.55;;;19.50;60.00;;;;;;10412794;28;20022;-62
2022/05/12 06:24:58;;;;;;;9.85;3.50;;;19.50;60.10;;;;;;10393721;28;20032;-62
2022/05/12 06:29:59;;;;;;;12.18;3.33;;;19.50;60.10;;;;;;10410118;28;20416;-65
2022/05/12 06:35:00;;;;;;;10.38;2.22;;;19.50;59.70;;;;;;10412692;28;20494;-62
2022/05/12 06:40:01;;;;;;;9.57;2.50;;;19.40;60.00;;;;;;10407597;28;20932;-62
2022/05/12 06:45:04;;;;;;;11.15;2.65;;;19.50;60.20;;;;;;10408885;28;20074;-62
2022/05/12 06:50:05;;;;;;;5.15;1.73;;;19.50;60.30;;;;;;10411044;28;20025;-60
2022/05/12 06:55:07;;;;;;;8.57;2.58;;;19.50;60.00;;;;;;10415795;28;20128;-60
2022/05/12 07:00:09;;;;;;;6.97;2.28;;;19.50;60.60;;;;;;10410799;28;20619;-61
2022/05/12 07:05:15;;;;;;;9.63;2.55;;;19.50;60.20;;;;;;10411955;28;20029;-61
2022/05/12 07:10:20;;;;;;;5.95;1.85;;;19.50;60.10;;;;;;10434141;28;20037;-63
2022/05/12 07:15:25;;;;;;;5.50;1.65;;;19.50;60.00;;;;;;10433108;28;20494;-62
2022/05/12 07:31:09;;;;;;;5.47;2.15;;;19.50;60.10;;;;;;10415112;28;20406;-63
2022/05/12 07:36:14;;;;;;;9.88;1.95;;;19.50;60.00;;;;;;10416398;28;20041;-63
2022/05/12 07:41:17;;;;;;;5.45;3.38;;;19.50;60.00;;;;;;10416938;28;20393;-63
2022/05/12 07:46:23;;;;;;;7.85;2.20;;;19.50;59.70;;;;;;10433355;28;20028;-63
2022/05/12 07:51:24;;;;;;;3.70;1.48;;;19.50;59.90;;;;;;10414184;28;20071;-63
2022/05/12 07:56:27;;;;;;;4.63;1.58;;;19.60;59.90;;;;;;10417555;28;20048;-63
2022/05/12 08:01:27;;;;;;;3.17;1.40;;;19.60;59.80;;;;;;10417512;28;20378;-64
2022/05/12 08:06:28;;;;;;;4.68;1.67;;;19.60;59.80;;;;;;10416365;28;20040;-63
2022/05/12 08:11:29;;;;;;;4.38;1.40;;;19.60;59.60;;;;;;10415921;28;20132;-63
2022/05/12 08:16:30;;;;;;;2.83;1.23;;;19.60;59.50;;;;;;10415343;28;20064;-63
2022/05/12 08:21:31;;;;;;;3.42;1.40;;;19.60;59.80;;;;;;10421250;28;20028;-63
2022/05/12 08:26:33;;;;;;;5.10;1.45;;;19.60;59.40;;;;;;10416836;28;20146;-64
2022/05/12 08:31:33;;;;;;;4.25;1.55;;;19.60;59.50;;;;;;10431647;28;20056;-64
2022/05/12 08:36:34;;;;;;;4.28;1.50;;;19.60;59.40;;;;;;10416027;28;20109;-64
2022/05/12 08:41:59;;;;;;;6.15;1.58;;;19.60;59.40;;;;;;10415972;28;20112;-63
2022/05/12 08:47:03;;;;;;;4.10;0.93;;;19.60;59.50;;;;;;10431096;28;20029;-63
2022/05/12 08:52:46;;;;;;;4.32;1.15;;;19.60;59.40;;;;;;10428146;28;20029;-63
2022/05/12 08:58:11;;;;;;;5.70;1.17;;;19.60;59.60;;;;;;10415456;28;20413;-64
2022/05/12 09:03:31;;;;;;;3.70;1.30;;;19.60;59.50;;;;;;10414010;28;20401;-63
2022/05/12 09:08:41;;;;;;;4.47;1.30;;;19.60;59.50;;;;;;10414938;28;20459;-63
2022/05/12 09:13:53;;;;;;;3.95;1.30;;;19.60;59.40;;;;;;10414657;28;20077;-63
2022/05/12 09:18:55;;;;;;;2.85;1.20;;;19.60;59.40;;;;;;10413335;28;20030;-64
2022/05/12 09:23:57;;;;;;;3.60;2.13;;;19.60;59.60;;;;;;10420653;28;20029;-63
2022/05/12 09:29:22;;;;;;;4.72;1.05;;;19.60;59.50;;;;;;10428642;28;20025;-64
2022/05/12 09:34:26;;;;;;;3.70;1.25;;;19.60;59.30;;;;;;10429273;28;20744;-63
2022/05/12 09:39:44;;;;;;;2.47;0.80;;;19.60;59.40;;;;;;10428933;28;20025;-63
2022/05/12 09:45:02;;;;;;;4.28;1.23;;;19.60;59.30;;;;;;10428943;28;20053;-63
2022/05/12 09:50:17;;;;;;;4.70;1.58;;;19.70;59.10;;;;;;10428649;28;20029;-63
2022/05/12 09:55:31;;;;;;;1.10;0.73;;;19.70;59.20;;;;;;10412265;28;20029;-63
2022/05/12 10:00:39;;;;;;;2.03;0.75;;;19.70;59.10;;;;;;10426790;28;20052;-63
2022/05/12 10:11:04;;;;;;;2.53;1.05;;;19.70;59.00;;;;;;10426281;28;20070;-64
2022/05/12 10:16:09;;;;;;;3.15;0.98;;;19.70;58.90;;;;;;10427997;28;20124;-64
2022/05/12 10:21:45;;;;;;;2.58;0.80;;;19.70;59.10;;;;;;10430390;28;20078;-64
2022/05/12 10:26:59;;;;;;;2.75;1.00;;;19.70;58.80;;;;;;10398786;28;20037;-63
2022/05/12 10:32:45;;;;;;;2.10;1.00;;;19.70;58.80;;;;;;10426605;28;20052;-63
2022/05/12 10:38:11;;;;;;;3.95;1.48;;;19.70;58.90;;;;;;10426966;28;20068;-63
2022/05/12 10:43:55;;;;;;;2.80;1.50;;;19.80;58.90;;;;;;10417810;28;20071;-63
2022/05/12 10:49:14;;;;;;;2.13;0.85;;;19.70;58.70;;;;;;10433887;28;20033;-62
2022/05/12 10:54:24;;;;;;;2.72;0.90;;;19.80;58.90;;;;;;10419448;28;20497;-63
2022/05/12 10:59:44;;;;;;;2.63;1.20;;;19.80;58.60;;;;;;10419897;28;20034;-62
2022/05/12 11:04:53;;;;;;;2.70;1.35;;;19.70;58.50;;;;;;10419608;28;20041;-63
2022/05/12 11:10:18;;;;;;;1.37;0.77;;;19.80;58.90;;;;;;10418610;28;20029;-63
2022/05/12 11:15:59;;;;;;;3.42;1.13;;;19.80;58.70;;;;;;10419835;28;20022;-63
2022/05/12 11:21:18;;;;;;;2.45;1.02;;;19.80;58.40;;;;;;10412029;28;20501;-64
2022/05/12 11:26:46;;;;;;;2.20;1.05;;;19.90;58.40;;;;;;10419588;28;20108;-63
2022/05/12 11:31:52;;;;;;;1.85;0.90;;;19.90;58.10;;;;;;10418493;28;20053;-64
2022/05/12 11:36:55;;;;;;;1.60;0.90;;;19.90;58.30;;;;;;10433672;28;20033;-63
2022/05/12 11:42:20;;;;;;;2.03;1.25;;;19.90;58.30;;;;;;10403989;28;20025;-63
2022/05/12 11:47:55;;;;;;;3.28;0.90;;;19.90;58.20;;;;;;10433534;28;20043;-63
2022/05/12 11:53:10;;;;;;;1.00;0.80;;;19.90;58.10;;;;;;10429871;28;20033;-64
2022/05/12 11:58:13;;;;;;;3.13;0.93;;;20.00;58.00;;;;;;10417772;28;20029;-63
2022/05/12 12:03:20;;;;;;;3.88;0.90;;;20.00;57.40;;;;;;10416384;28;20038;-63
2022/05/12 12:08:30;;;;;;;2.78;0.50;;;20.00;57.70;;;;;;10417444;28;20040;-62
2022/05/12 12:13:36;;;;;;;1.15;0.57;;;20.10;57.70;;;;;;10416997;28;20087;-63
2022/05/12 12:18:36;;;;;;;2.60;2.08;;;20.10;57.80;;;;;;10407253;28;20028;-63
2022/05/12 12:23:37;;;;;;;2.60;0.93;;;20.10;57.80;;;;;;10422753;28;20046;-63
2022/05/12 12:29:05;;;;;;;2.28;0.68;;;20.10;57.60;;;;;;10416741;28;20060;-63
2022/05/12 12:34:41;;;;;;;2.10;0.90;;;20.10;57.60;;;;;;10430732;28;20085;-64
2022/05/12 12:39:48;;;;;;;2.42;1.00;;;20.10;57.70;;;;;;10404255;28;20080;-63
2022/05/12 12:44:53;;;;;;;0.82;0.60;;;20.10;57.40;;;;;;10414744;28;20026;-63
2022/05/12 12:50:16;;;;;;;1.88;0.70;;;20.00;57.70;;;;;;10414401;28;20030;-63
2022/05/12 13:00:44;;;;;;;1.90;0.70;;;20.10;57.60;;;;;;10403026;28;20033;-64
2022/05/12 13:05:44;;;;;;;2.40;1.02;;;20.10;57.50;;;;;;10412787;28;20465;-63
2022/05/12 13:10:49;;;;;;;1.38;0.57;;;20.10;57.40;;;;;;10413847;28;20517;-63
2022/05/12 13:16:00;;;;;;;1.73;1.20;;;20.20;57.50;;;;;;10413626;28;20029;-63
2022/05/12 13:21:03;;;;;;;1.98;0.93;;;20.20;57.30;;;;;;10416479;28;20078;-63
2022/05/12 13:26:09;;;;;;;1.83;0.80;;;20.20;57.50;;;;;;10417398;28;20037;-63
2022/05/12 13:31:12;;;;;;;2.28;0.68;;;20.20;57.50;;;;;;10427698;28;20042;-64
2022/05/12 13:36:23;;;;;;;1.27;0.70;;;20.20;57.50;;;;;;10412524;28;20029;-63
2022/05/12 13:41:33;;;;;;;2.10;0.70;;;20.20;57.50;;;;;;10427828;28;20029;-63
2022/05/12 13:46:37;;;;;;;2.22;0.75;;;20.20;57.40;;;;;;10412997;28;20489;-63
2022/05/12 13:51:52;;;;;;;2.67;1.00;;;20.20;57.40;;;;;;10425828;28;20043;-62
2022/05/12 13:57:15;;;;;;;1.30;0.68;;;20.20;57.30;;;;;;10412384;28;20490;-63
2022/05/12 14:02:24;;;;;;;1.35;0.70;;;20.20;57.40;;;;;;10414417;28;20221;-63
2022/05/12 14:07:27;;;;;;;;;;;20.20;57.40;;;;;;10413642;28;20060;-63
2022/05/12 14:12:29;;;;;;;1.33;0.70;;;20.20;57.40;;;;;;10411717;28;19948;-63
2022/05/12 14:22:57;;;;;;;1.00;0.60;;;20.20;57.30;;;;;;10432461;28;20044;-63
2022/05/12 14:27:58;;;;;;;1.08;0.55;;;20.20;57.40;;;;;;10428067;28;20056;-63
2022/05/12 14:32:58;;;;;;;1.33;0.70;;;20.20;57.20;;;;;;10411936;28;20486;-62
2022/05/12 14:38:01;;;;;;;1.38;0.80;;;20.20;57.60;;;;;;10427506;28;20104;-62
2022/05/12 14:43:01;;;;;;;1.40;0.60;;;20.20;57.40;;;;;;10410945;28;20513;-63
2022/05/12 14:48:07;;;;;;;0.88;0.60;;;20.20;57.50;;;;;;10425916;28;20160;-63
2022/05/12 14:53:10;;;;;;;1.48;0.93;;;20.20;57.60;;;;;;10398042;28;20029;-62
2022/05/12 14:58:11;;;;;;;2.33;0.90;;;20.20;57.70;;;;;;10403137;28;20080;-62
2022/05/12 15:03:13;;;;;;;2.25;1.00;;;20.20;57.60;;;;;;10408008;28;20061;-62
2022/05/12 15:08:14;;;;;;;2.58;0.70;;;20.20;57.50;;;;;;10409329;28;20045;-62
2022/05/12 15:13:14;;;;;;;2.47;0.85;;;20.20;57.60;;;;;;10407946;28;20471;-62
2022/05/12 15:18:15;;;;;;;3.17;0.77;;;20.10;57.10;;;;;;10411525;28;20564;-62
2022/05/12 15:23:16;;;;;;;2.78;1.08;;;20.20;57.50;;;;;;10421382;28;20441;-62
2022/05/12 15:28:27;;;;;;;1.10;0.55;;;20.20;57.40;;;;;;10415210;28;20045;-62
2022/05/12 15:33:27;;;;;;;1.13;0.60;;;20.20;57.60;;;;;;10434550;28;20084;-62
2022/05/12 15:38:29;;;;;;;1.33;0.80;;;20.10;57.60;;;;;;10418606;28;20107;-63
2022/05/12 15:43:32;;;;;;;2.65;1.13;;;20.10;57.60;;;;;;10416829;28;20033;-62
2022/05/12 15:48:33;;;;;;;3.72;0.63;;;20.10;57.50;;;;;;10418216;28;20025;-63
2022/05/12 15:53:34;;;;;;;4.50;0.90;;;20.20;57.40;;;;;;10431716;28;20029;-63
2022/05/12 15:58:34;;;;;;;3.40;0.88;;;20.10;57.30;;;;;;10417044;28;20043;-63
2022/05/12 16:03:35;;;;;;;1.33;1.00;;;20.10;57.10;;;;;;10418304;28;20120;-62
2022/05/12 16:08:36;;;;;;;2.13;1.00;;;20.10;57.30;;;;;;10405085;28;20108;-64
2022/05/12 16:13:38;;;;;;;2.13;0.60;;;20.10;57.10;;;;;;10433163;28;20083;-63
2022/05/12 16:18:38;;;;;;;2.08;0.75;;;20.10;57.10;;;;;;10417261;28;20056;-64
2022/05/12 16:23:39;;;;;;;2.80;0.75;;;20.10;57.10;;;;;;10424237;28;20049;-63
2022/05/12 16:28:41;;;;;;;2.15;0.98;;;20.10;57.20;;;;;;10414378;28;20112;-60
2022/05/12 16:33:44;;;;;;;4.15;1.00;;;20.10;57.00;;;;;;10413006;28;20046;-62
2022/05/12 16:38:46;;;;;;;1.83;0.90;;;20.10;57.10;;;;;;10409047;28;20047;-62
2022/05/12 16:43:48;;;;;;;4.45;1.48;;;20.00;57.00;;;;;;10416117;28;20079;-61
2022/05/12 16:48:49;;;;;;;6.22;1.70;;;20.00;55.90;;;;;;10416428;28;20037;-62
2022/05/12 16:53:50;;;;;;;6.70;2.00;;;20.00;54.70;;;;;;10415963;28;20382;-63
2022/05/12 16:58:51;;;;;;;3.20;1.25;;;20.00;54.10;;;;;;10415254;28;20431;-61
2022/05/12 17:03:51;;;;;;;8.63;1.77;;;20.00;53.00;;;;;;10415046;28;20030;-60
2022/05/12 17:08:53;;;;;;;4.30;1.67;;;20.00;53.30;;;;;;10429736;28;20068;-59
2022/05/12 17:13:54;;;;;;;4.55;1.60;;;20.00;52.80;;;;;;10421602;28;20025;-61
2022/05/12 17:18:55;;;;;;;5.50;2.47;;;20.00;53.10;;;;;;10414266;28;20060;-61
2022/05/12 17:23:55;;;;;;;3.53;1.50;;;20.00;52.70;;;;;;10428948;28;20067;-62
2022/05/12 17:28:57;;;;;;;6.20;1.75;;;20.00;52.70;;;;;;10413904;28;20087;-61
2022/05/12 17:33:57;;;;;;;3.60;2.13;;;20.00;52.30;;;;;;10414156;28;20053;-61
2022/05/12 17:38:58;;;;;;;2.55;1.58;;;20.00;51.80;;;;;;10414631;28;20430;-62
2022/05/12 17:44:04;;;;;;;6.00;2.40;;;20.00;51.60;;;;;;10413935;28;20489;-61
2022/05/12 17:49:05;;;;;;;4.50;1.77;;;20.00;51.10;;;;;;10412544;28;20057;-62
2022/05/12 17:54:06;;;;;;;8.55;2.05;;;20.00;51.10;;;;;;10412433;28;20035;-62
2022/05/12 17:59:07;;;;;;;9.15;1.88;;;20.00;51.30;;;;;;10411462;28;20078;-60
2022/05/12 18:04:09;;;;;;;4.18;1.75;;;20.00;50.60;;;;;;10412033;28;20100;-63
2022/05/12 18:09:10;;;;;;;5.53;1.90;;;20.10;50.50;;;;;;10405370;28;20080;-61
2022/05/12 18:14:11;;;;;;;5.60;1.88;;;20.10;50.40;;;;;;10406999;28;20030;-57
2022/05/12 18:19:12;;;;;;;5.95;2.58;;;20.10;50.50;;;;;;10411274;28;20052;-58
2022/05/12 18:24:13;;;;;;;2.90;1.60;;;20.00;50.60;;;;;;10419888;28;20544;-58
2022/05/12 18:29:14;;;;;;;5.15;1.63;;;20.00;51.40;;;;;;10412472;28;20117;-59
2022/05/12 18:34:16;;;;;;;5.97;1.50;;;20.00;51.80;;;;;;10411573;28;20116;-59
2022/05/12 18:39:17;;;;;;;3.70;1.67;;;20.00;51.90;;;;;;10412503;28;20030;-59
2022/05/12 18:44:18;;;;;;;4.50;1.65;;;20.00;51.80;;;;;;10410788;28;20032;-59
2022/05/12 18:49:18;;;;;;;2.22;1.17;;;20.00;52.10;;;;;;10410888;28;20065;-58
2022/05/12 18:54:19;;;;;;;2.58;1.33;;;20.00;52.20;;;;;;10410520;28;20108;-59
2022/05/12 18:59:20;;;;;;;2.75;1.00;;;20.00;52.10;;;;;;10410446;28;20033;-59
2022/05/12 19:04:21;;;;;;;3.05;1.13;;;20.00;51.50;;;;;;10414988;28;20079;-59
2022/05/12 19:09:22;;;;;;;3.15;1.23;;;20.00;52.00;;;;;;10417843;28;20044;-59
2022/05/12 19:14:22;;;;;;;2.95;1.10;;;20.00;51.50;;;;;;10399780;28;20021;-59
2022/05/12 19:19:24;;;;;;;2.72;0.90;;;19.90;51.70;;;;;;10417534;28;20875;-59
2022/05/12 19:24:25;;;;;;;2.22;1.20;;;19.90;51.80;;;;;;10417418;28;20384;-58
2022/05/12 19:29:26;;;;;;;2.97;0.90;;;19.90;51.40;;;;;;10418609;28;20061;-59
2022/05/12 19:34:26;;;;;;;3.30;1.17;;;19.90;50.90;;;;;;10417862;28;20549;-60
2022/05/12 19:39:27;;;;;;;2.17;0.95;;;19.90;49.80;;;;;;10417878;28;20120;-60
2022/05/12 19:44:28;;;;;;;2.38;0.90;;;19.90;49.70;;;;;;10417668;28;20108;-61
2022/05/12 19:49:29;;;;;;;4.45;1.30;;;19.90;49.10;;;;;;10418901;28;20026;-62
2022/05/12 19:54:29;;;;;;;4.57;0.90;;;19.90;49.20;;;;;;10415641;28;20037;-60
2022/05/12 19:59:30;;;;;;;3.30;1.38;;;19.80;49.50;;;;;;10414868;28;20668;-61
2022/05/12 20:04:31;;;;;;;2.17;1.30;;;19.80;48.80;;;;;;10417527;28;20470;-61
2022/05/12 20:09:31;;;;;;;2.92;0.93;;;19.80;49.70;;;;;;10415977;28;20623;-61
2022/05/12 20:14:33;;;;;;;2.33;0.85;;;19.80;49.80;;;;;;10416026;28;20080;-61
2022/05/12 20:19:34;;;;;;;3.50;0.80;;;19.80;50.10;;;;;;10415889;28;20053;-60
2022/05/12 20:24:36;;;;;;;6.78;1.90;;;19.80;50.30;;;;;;10420629;28;20045;-60
2022/05/12 20:29:37;;;;;;;1.48;0.85;;;19.80;50.60;;;;;;10414965;28;20029;-61
2022/05/12 20:34:38;;;;;;;1.88;0.93;;;19.80;51.20;;;;;;10415018;28;20516;-61
2022/05/12 20:39:39;;;;;;;2.33;0.77;;;19.80;50.70;;;;;;10415506;28;20049;-61
2022/05/12 20:44:39;;;;;;;1.88;1.10;;;19.80;50.70;;;;;;10416452;28;20121;-61
2022/05/12 20:49:40;;;;;;;1.20;0.60;;;19.80;50.70;;;;;;10431863;28;20075;-62
2022/05/12 20:54:41;;;;;;;4.07;0.70;;;19.80;50.80;;;;;;10413304;28;20549;-62
2022/05/12 20:59:43;;;;;;;1.95;0.60;;;19.80;50.90;;;;;;10431515;28;20022;-61
2022/05/12 21:04:44;;;;;;;1.50;0.60;;;19.80;50.90;;;;;;10415541;28;20037;-61
2022/05/12 21:09:45;;;;;;;2.50;1.55;;;19.80;51.10;;;;;;10415863;28;20087;-61
2022/05/12 21:14:46;;;;;;;1.42;0.70;;;19.80;51.30;;;;;;10415584;28;20602;-62
2022/05/12 21:19:46;;;;;;;2.60;0.85;;;19.80;51.50;;;;;;10387784;28;20033;-61
2022/05/12 21:24:47;;;;;;;1.83;0.85;;;19.80;51.60;;;;;;10428300;28;20068;-61
2022/05/12 21:29:47;;;;;;;1.80;0.73;;;19.80;51.70;;;;;;10414884;28;20119;-61
2022/05/12 21:34:48;;;;;;;2.92;0.60;;;19.80;51.80;;;;;;10414643;28;20393;-61
2022/05/12 21:39:50;;;;;;;1.60;0.60;;;19.80;51.80;;;;;;10414765;28;20104;-61
2022/05/12 21:50:10;;;;;;;1.15;0.65;;;19.80;52.40;;;;;;10413295;28;20041;-61
2022/05/12 21:55:11;;;;;;;1.58;0.75;;;19.80;51.90;;;;;;10411250;28;20037;-60
2022/05/12 22:06:00;;;;;;;1.23;0.70;;;19.70;51.90;;;;;;10404963;28;20037;-61
2022/05/12 22:11:01;;;;;;;2.45;0.80;;;19.70;52.00;;;;;;10413588;28;20033;-61
2022/05/12 22:16:03;;;;;;;1.85;0.57;;;19.70;52.10;;;;;;10413184;28;20046;-61
2022/05/12 22:21:05;;;;;;;1.58;0.60;;;19.70;52.20;;;;;;10414804;28;20044;-61
2022/05/12 22:26:05;;;;;;;2.05;0.90;;;19.70;52.30;;;;;;10416541;28;20091;-61
2022/05/12 22:31:06;;;;;;;1.65;0.60;;;19.70;52.30;;;;;;10412885;28;20175;-61
2022/05/12 22:36:07;;;;;;;1.27;0.70;;;19.70;52.30;;;;;;10418692;28;20080;-61
2022/05/12 22:41:07;;;;;;;0.90;0.50;;;19.70;52.40;;;;;;10426314;28;20086;-61
2022/05/12 22:46:09;;;;;;;2.03;1.00;;;19.70;52.50;;;;;;10426246;28;20109;-61
2022/05/12 22:51:13;;;;;;;2.83;0.73;;;19.70;52.60;;;;;;10425701;28;20036;-61
2022/05/12 22:56:15;;;;;;;2.90;0.77;;;19.70;52.70;;;;;;10425630;28;20026;-61
2022/05/12 23:01:16;;;;;;;1.42;0.47;;;19.70;52.60;;;;;;10424795;28;20033;-61
2022/05/12 23:06:17;;;;;;;2.03;0.85;;;19.70;52.70;;;;;;10431701;28;20041;-61
2022/05/12 23:11:18;;;;;;;1.70;0.93;;;19.70;52.70;;;;;;10425922;28;20064;-61
2022/05/12 23:16:19;;;;;;;0.90;0.50;;;19.70;52.70;;;;;;10425536;28;20091;-61
2022/05/12 23:26:40;;;;;;;1.27;0.65;;;19.60;52.80;;;;;;10416950;28;20045;-61
2022/05/12 23:31:41;;;;;;;1.73;0.57;;;19.70;52.90;;;;;;10424237;28;20053;-61
2022/05/12 23:36:41;;;;;;;1.48;0.75;;;19.60;52.90;;;;;;10425421;28;20072;-61
2022/05/12 23:41:42;;;;;;;1.65;0.60;;;19.60;53.00;;;;;;10440989;28;20033;-61
2022/05/12 23:46:43;;;;;;;1.25;0.75;;;19.60;53.00;;;;;;10422582;28;20040;-60
2022/05/12 23:51:44;;;;;;;1.38;0.60;;;19.60;53.00;;;;;;10417208;28;20703;-61
2022/05/12 23:56:45;;;;;;;1.25;0.77;;;19.60;53.00;;;;;;10418338;28;20094;-61
